sensor_id;sensor_type;location;lat;lon;timestamp;pressure;altitude;pressure_sealevel;temperature;humidity
28921;BME280;16035;53.594;9.952;2023-07-28T00:00:37;100073.16;;;17.82;78.74
28921;BME280;16035;53.594;9.952;2023-07-28T00:02:38;100072.66;;;17.80;79.02
28921;BME280;16035;53.594;9.952;2023-07-28T00:04:38;100071.41;;;17.77;79.05
28921;BME280;16035;53.594;9.952;2023-07-28T00:06:38;100077.19;;;17.76;79.24
28921;BME280;16035;53.594;9.952;2023-07-28T00:08:39;100068.97;;;17.76;79.31
28921;BME280;16035;53.594;9.952;2023-07-28T00:10:40;100072.84;;;17.75;79.47
28921;BME280;16035;53.594;9.952;2023-07-28T00:12:41;100065.06;;;17.77;79.53
28921;BME280;16035;53.594;9.952;2023-07-28T00:14:41;100073.47;;;17.80;79.32
28921;BME280;16035;53.594;9.952;2023-07-28T00:16:42;100072.03;;;17.83;79.24
28921;BME280;16035;53.594;9.952;2023-07-28T00:18:42;100077.53;;;17.83;79.23
28921;BME280;16035;53.594;9.952;2023-07-28T00:20:42;100070.09;;;17.83;79.15
28921;BME280;16035;53.594;9.952;2023-07-28T00:22:43;100075.91;;;17.82;79.35
28921;BME280;16035;53.594;9.952;2023-07-28T00:24:43;100056.97;;;17.80;79.22
28921;BME280;16035;53.594;9.952;2023-07-28T00:26:44;100060.22;;;17.82;79.26
28921;BME280;16035;53.594;9.952;2023-07-28T00:28:44;100050.69;;;17.80;79.44
28921;BME280;16035;53.594;9.952;2023-07-28T00:30:49;100052.28;;;17.81;79.28
28921;BME280;16035;53.594;9.952;2023-07-28T00:32:49;100047.59;;;17.81;79.18
28921;BME280;16035;53.594;9.952;2023-07-28T00:34:49;100047.28;;;17.83;79.35
28921;BME280;16035;53.594;9.952;2023-07-28T00:36:50;100046.78;;;17.81;79.03
28921;BME280;16035;53.594;9.952;2023-07-28T00:38:50;100049.06;;;17.79;79.13
28921;BME280;16035;53.594;9.952;2023-07-28T00:40:50;100048.56;;;17.77;79.17
28921;BME280;16035;53.594;9.952;2023-07-28T00:42:51;100051.16;;;17.73;79.25
28921;BME280;16035;53.594;9.952;2023-07-28T00:44:51;100047.13;;;17.71;79.30
28921;BME280;16035;53.594;9.952;2023-07-28T00:46:52;100053.25;;;17.67;79.15
28921;BME280;16035;53.594;9.952;2023-07-28T00:48:52;100054.72;;;17.65;79.30
28921;BME280;16035;53.594;9.952;2023-07-28T00:50:53;100049.53;;;17.63;79.35
28921;BME280;16035;53.594;9.952;2023-07-28T00:52:54;100049.88;;;17.62;80.00
28921;BME280;16035;53.594;9.952;2023-07-28T00:54:55;100049.53;;;17.63;79.40
28921;BME280;16035;53.594;9.952;2023-07-28T00:56:55;100045.69;;;17.64;79.67
28921;BME280;16035;53.594;9.952;2023-07-28T00:58:56;100045.84;;;17.68;79.97
28921;BME280;16035;53.594;9.952;2023-07-28T01:00:57;100047.13;;;17.71;79.64
28921;BME280;16035;53.594;9.952;2023-07-28T01:02:57;100044.03;;;17.72;79.85
28921;BME280;16035;53.594;9.952;2023-07-28T01:04:58;100047.63;;;17.73;79.93
28921;BME280;16035;53.594;9.952;2023-07-28T01:09:13;100051.31;;;17.77;79.85
28921;BME280;16035;53.594;9.952;2023-07-28T01:11:15;100045.19;;;17.80;79.52
28921;BME280;16035;53.594;9.952;2023-07-28T01:13:15;100036.94;;;17.80;79.67
28921;BME280;16035;53.594;9.952;2023-07-28T01:15:15;100036.94;;;17.80;79.81
28921;BME280;16035;53.594;9.952;2023-07-28T01:17:15;100033.06;;;17.81;79.95
28921;BME280;16035;53.594;9.952;2023-07-28T01:19:17;100037.44;;;17.82;79.70
28921;BME280;16035;53.594;9.952;2023-07-28T01:21:28;100033.06;;;17.81;79.98
28921;BME280;16035;53.594;9.952;2023-07-28T01:23:51;100026.75;;;17.80;80.11
28921;BME280;16035;53.594;9.952;2023-07-28T01:26:10;100025.31;;;17.74;79.92
28921;BME280;16035;53.594;9.952;2023-07-28T01:28:12;100027.88;;;17.71;79.81
28921;BME280;16035;53.594;9.952;2023-07-28T01:30:13;100024.66;;;17.68;79.79
28921;BME280;16035;53.594;9.952;2023-07-28T01:32:14;100029.03;;;17.69;80.08
28921;BME280;16035;53.594;9.952;2023-07-28T01:34:14;100033.38;;;17.71;79.72
28921;BME280;16035;53.594;9.952;2023-07-28T01:36:14;100034.97;;;17.72;80.28
28921;BME280;16035;53.594;9.952;2023-07-28T01:38:15;100028.38;;;17.73;80.22
28921;BME280;16035;53.594;9.952;2023-07-28T01:40:17;100026.13;;;17.75;80.25
28921;BME280;16035;53.594;9.952;2023-07-28T01:42:17;100030.47;;;17.76;80.35
28921;BME280;16035;53.594;9.952;2023-07-28T01:44:18;100032.09;;;17.77;80.25
28921;BME280;16035;53.594;9.952;2023-07-28T01:46:18;100027.91;;;17.79;80.35
28921;BME280;16035;53.594;9.952;2023-07-28T01:48:18;100026.91;;;17.84;80.28
28921;BME280;16035;53.594;9.952;2023-07-28T01:50:19;100030.00;;;17.82;80.21
28921;BME280;16035;53.594;9.952;2023-07-28T01:52:19;100025.31;;;17.83;80.15
28921;BME280;16035;53.594;9.952;2023-07-28T01:54:19;100031.59;;;17.83;80.16
28921;BME280;16035;53.594;9.952;2023-07-28T01:56:20;100033.84;;;17.81;79.94
28921;BME280;16035;53.594;9.952;2023-07-28T01:58:20;100033.06;;;17.81;80.11
28921;BME280;16035;53.594;9.952;2023-07-28T02:00:20;100031.78;;;17.78;79.92
28921;BME280;16035;53.594;9.952;2023-07-28T02:02:21;100034.03;;;17.76;80.11
28921;BME280;16035;53.594;9.952;2023-07-28T02:04:21;100037.44;;;17.73;80.10
28921;BME280;16035;53.594;9.952;2023-07-28T02:06:21;100042.41;;;17.71;80.38
28921;BME280;16035;53.594;9.952;2023-07-28T02:08:21;100042.41;;;17.71;80.29
28921;BME280;16035;53.594;9.952;2023-07-28T02:10:23;100041.28;;;17.72;80.03
28921;BME280;16035;53.594;9.952;2023-07-28T02:12:24;100056.34;;;17.75;80.16
28921;BME280;16035;53.594;9.952;2023-07-28T02:14:24;100057.78;;;17.72;80.29
28921;BME280;16035;53.594;9.952;2023-07-28T02:16:24;100056.34;;;17.75;80.24
28921;BME280;16035;53.594;9.952;2023-07-28T02:18:27;100059.56;;;17.77;80.31
28921;BME280;16035;53.594;9.952;2023-07-28T02:20:27;100049.72;;;17.76;80.21
28921;BME280;16035;53.594;9.952;2023-07-28T02:22:28;100050.53;;;17.76;80.34
28921;BME280;16035;53.594;9.952;2023-07-28T02:24:28;100052.47;;;17.76;80.25
28921;BME280;16035;53.594;9.952;2023-07-28T02:26:28;100050.06;;;17.74;80.33
28921;BME280;16035;53.594;9.952;2023-07-28T02:28:29;100059.09;;;17.75;80.08
28921;BME280;16035;53.594;9.952;2023-07-28T02:30:29;100059.72;;;17.72;79.91
28921;BME280;16035;53.594;9.952;2023-07-28T02:32:29;100070.56;;;17.68;79.82
28921;BME280;16035;53.594;9.952;2023-07-28T02:34:30;100076.53;;;17.61;79.95
28921;BME280;16035;53.594;9.952;2023-07-28T02:36:31;100072.50;;;17.59;80.06
28921;BME280;16035;53.594;9.952;2023-07-28T02:38:31;100070.88;;;17.58;79.93
28921;BME280;16035;53.594;9.952;2023-07-28T02:40:32;100068.47;;;17.56;80.00
28921;BME280;16035;53.594;9.952;2023-07-28T02:42:33;100072.19;;;17.52;80.54
28921;BME280;16035;53.594;9.952;2023-07-28T02:44:35;100074.13;;;17.51;80.32
28921;BME280;16035;53.594;9.952;2023-07-28T02:46:35;100074.59;;;17.53;80.43
28921;BME280;16035;53.594;9.952;2023-07-28T02:48:36;100069.78;;;17.50;80.96
28921;BME280;16035;53.594;9.952;2023-07-28T02:50:37;100069.28;;;17.48;80.20
28921;BME280;16035;53.594;9.952;2023-07-28T02:52:37;100077.50;;;17.48;80.25
28921;BME280;16035;53.594;9.952;2023-07-28T02:54:37;100079.78;;;17.46;80.41
28921;BME280;16035;53.594;9.952;2023-07-28T02:56:38;100091.59;;;17.47;80.87
28921;BME280;16035;53.594;9.952;2023-07-28T02:58:38;100090.44;;;17.48;80.51
28921;BME280;16035;53.594;9.952;2023-07-28T03:00:40;100084.63;;;17.49;80.65
28921;BME280;16035;53.594;9.952;2023-07-28T03:02:40;100089.47;;;17.52;80.80
28921;BME280;16035;53.594;9.952;2023-07-28T03:04:41;100086.38;;;17.54;80.43
28921;BME280;16035;53.594;9.952;2023-07-28T03:06:41;100085.13;;;17.51;80.54
28921;BME280;16035;53.594;9.952;2023-07-28T03:08:41;100093.03;;;17.53;80.87
28921;BME280;16035;53.594;9.952;2023-07-28T03:10:41;100098.03;;;17.51;80.44
28921;BME280;16035;53.594;9.952;2023-07-28T03:12:42;100096.41;;;17.50;80.11
28921;BME280;16035;53.594;9.952;2023-07-28T03:14:42;100099.47;;;17.48;80.66
28921;BME280;16035;53.594;9.952;2023-07-28T03:16:43;100100.13;;;17.54;80.74
28921;BME280;16035;53.594;9.952;2023-07-28T03:18:43;100102.88;;;17.54;80.89
28921;BME280;16035;53.594;9.952;2023-07-28T03:20:43;100103.53;;;17.51;80.51
28921;BME280;16035;53.594;9.952;2023-07-28T03:22:43;100106.41;;;17.46;80.47
28921;BME280;16035;53.594;9.952;2023-07-28T03:24:44;100104.00;;;17.44;80.71
28921;BME280;16035;53.594;9.952;2023-07-28T03:26:46;100097.38;;;17.45;80.93
28921;BME280;16035;53.594;9.952;2023-07-28T03:28:46;100096.56;;;17.44;80.63
28921;BME280;16035;53.594;9.952;2023-07-28T03:30:47;100104.81;;;17.44;80.98
28921;BME280;16035;53.594;9.952;2023-07-28T03:32:47;100102.41;;;17.43;80.60
28921;BME280;16035;53.594;9.952;2023-07-28T03:34:47;100104.00;;;17.44;80.78
28921;BME280;16035;53.594;9.952;2023-07-28T03:36:48;100093.03;;;17.44;80.83
28921;BME280;16035;53.594;9.952;2023-07-28T03:38:48;100094.16;;;17.43;80.97
28921;BME280;16035;53.594;9.952;2023-07-28T03:40:48;100087.84;;;17.42;80.82
28921;BME280;16035;53.594;9.952;2023-07-28T03:42:49;100100.78;;;17.42;80.79
28921;BME280;16035;53.594;9.952;2023-07-28T03:44:49;100100.78;;;17.42;80.81
28921;BME280;16035;53.594;9.952;2023-07-28T03:46:49;100100.94;;;17.46;80.80
28921;BME280;16035;53.594;9.952;2023-07-28T03:48:50;100103.38;;;17.47;81.02
28921;BME280;16035;53.594;9.952;2023-07-28T03:50:50;100109.34;;;17.49;80.93
28921;BME280;16035;53.594;9.952;2023-07-28T03:52:50;100112.25;;;17.53;80.96
28921;BME280;16035;53.594;9.952;2023-07-28T03:54:50;100111.63;;;17.56;80.99
28921;BME280;16035;53.594;9.952;2023-07-28T03:56:51;100108.38;;;17.54;81.02
28921;BME280;16035;53.594;9.952;2023-07-28T03:58:51;100104.81;;;17.53;80.92
28921;BME280;16035;53.594;9.952;2023-07-28T04:00:53;100112.75;;;17.55;80.90
28921;BME280;16035;53.594;9.952;2023-07-28T04:02:53;100116.59;;;17.54;80.69
28921;BME280;16035;53.594;9.952;2023-07-28T04:04:55;100118.88;;;17.52;80.48
28921;BME280;16035;53.594;9.952;2023-07-28T04:06:55;100123.88;;;17.50;80.64
28921;BME280;16035;53.594;9.952;2023-07-28T04:08:55;100121.97;;;17.50;80.88
28921;BME280;16035;53.594;9.952;2023-07-28T04:10:56;100131.00;;;17.51;80.74
28921;BME280;16035;53.594;9.952;2023-07-28T04:12:56;100129.38;;;17.50;80.70
28921;BME280;16035;53.594;9.952;2023-07-28T04:14:56;100138.75;;;17.49;80.66
28921;BME280;16035;53.594;9.952;2023-07-28T04:16:56;100131.97;;;17.46;80.74
28921;BME280;16035;53.594;9.952;2023-07-28T04:18:57;100142.97;;;17.46;80.49
28921;BME280;16035;53.594;9.952;2023-07-28T04:20:58;100147.97;;;17.44;80.74
28921;BME280;16035;53.594;9.952;2023-07-28T04:22:58;100143.59;;;17.43;80.85
28921;BME280;16035;53.594;9.952;2023-07-28T04:24:58;100148.75;;;17.44;80.96
28921;BME280;16035;53.594;9.952;2023-07-28T04:26:58;100148.75;;;17.44;80.90
28921;BME280;16035;53.594;9.952;2023-07-28T04:28:59;100136.16;;;17.43;80.85
28921;BME280;16035;53.594;9.952;2023-07-28T04:30:59;100149.56;;;17.45;81.00
28921;BME280;16035;53.594;9.952;2023-07-28T04:33:00;100144.25;;;17.49;81.26
28921;BME280;16035;53.594;9.952;2023-07-28T04:35:00;100145.22;;;17.53;81.16
28921;BME280;16035;53.594;9.952;2023-07-28T04:37:00;100149.56;;;17.54;81.23
28921;BME280;16035;53.594;9.952;2023-07-28T04:39:01;100147.97;;;17.53;81.04
28921;BME280;16035;53.594;9.952;2023-07-28T04:41:01;100148.47;;;17.55;80.76
28921;BME280;16035;53.594;9.952;2023-07-28T04:43:01;100147.97;;;17.53;80.90
28921;BME280;16035;53.594;9.952;2023-07-28T04:45:03;100159.59;;;17.50;81.00
28921;BME280;16035;53.594;9.952;2023-07-28T04:47:03;100163.97;;;17.51;80.98
28921;BME280;16035;53.594;9.952;2023-07-28T04:49:04;100162.50;;;17.53;81.27
28921;BME280;16035;53.594;9.952;2023-07-28T04:51:04;100167.38;;;17.56;81.08
28921;BME280;16035;53.594;9.952;2023-07-28T04:53:04;100167.53;;;17.60;81.23
28921;BME280;16035;53.594;9.952;2023-07-28T04:55:05;100164.13;;;17.63;81.06
28921;BME280;16035;53.594;9.952;2023-07-28T04:57:05;100163.03;;;17.64;80.91
28921;BME280;16035;53.594;9.952;2023-07-28T04:59:05;100166.25;;;17.66;81.04
28921;BME280;16035;53.594;9.952;2023-07-28T05:01:06;100170.28;;;17.68;80.98
28921;BME280;16035;53.594;9.952;2023-07-28T05:03:09;100172.06;;;17.73;81.05
28921;BME280;16035;53.594;9.952;2023-07-28T05:05:09;100171.28;;;17.73;80.93
28921;BME280;16035;53.594;9.952;2023-07-28T05:07:09;100170.34;;;17.77;81.48
28921;BME280;16035;53.594;9.952;2023-07-28T05:09:10;100172.25;;;17.77;80.90
28921;BME280;16035;53.594;9.952;2023-07-28T05:11:10;100171.59;;;17.80;81.00
28921;BME280;16035;53.594;9.952;2023-07-28T05:13:10;100180.19;;;17.78;80.88
28921;BME280;16035;53.594;9.952;2023-07-28T05:15:11;100167.59;;;17.77;80.89
28921;BME280;16035;53.594;9.952;2023-07-28T05:17:11;100171.13;;;17.78;81.12
28921;BME280;16035;53.594;9.952;2023-07-28T05:19:12;100178.25;;;17.79;81.02
28921;BME280;16035;53.594;9.952;2023-07-28T05:21:12;100184.22;;;17.81;80.94
28921;BME280;16035;53.594;9.952;2023-07-28T05:23:13;100183.56;;;17.84;81.02
28921;BME280;16035;53.594;9.952;2023-07-28T05:25:13;100184.38;;;17.84;80.90
28921;BME280;16035;53.594;9.952;2023-07-28T05:27:14;100186.66;;;17.82;80.65
28921;BME280;16035;53.594;9.952;2023-07-28T05:29:14;100191.50;;;17.85;80.97
28921;BME280;16035;53.594;9.952;2023-07-28T05:31:15;100187.28;;;17.88;81.11
28921;BME280;16035;53.594;9.952;2023-07-28T05:33:15;100185.53;;;17.92;81.15
28921;BME280;16035;53.594;9.952;2023-07-28T05:35:16;100190.03;;;17.97;80.66
28921;BME280;16035;53.594;9.952;2023-07-28T05:37:16;100195.53;;;17.97;80.71
28921;BME280;16035;53.594;9.952;2023-07-28T05:39:16;100199.09;;;17.97;80.97
28921;BME280;16035;53.594;9.952;2023-07-28T05:41:17;100203.16;;;18.00;80.69
28921;BME280;16035;53.594;9.952;2023-07-28T05:43:17;100199.09;;;17.97;80.54
28921;BME280;16035;53.594;9.952;2023-07-28T05:45:17;100199.09;;;17.97;80.69
28921;BME280;16035;53.594;9.952;2023-07-28T05:47:18;100194.06;;;17.99;80.92
28921;BME280;16035;53.594;9.952;2023-07-28T05:49:18;100198.47;;;18.00;80.82
28921;BME280;16035;53.594;9.952;2023-07-28T05:51:18;100197.78;;;18.03;80.82
28921;BME280;16035;53.594;9.952;2023-07-28T05:53:22;100197.97;;;18.07;80.93
28921;BME280;16035;53.594;9.952;2023-07-28T05:55:22;100206.84;;;18.12;80.84
28921;BME280;16035;53.594;9.952;2023-07-28T05:57:23;100196.00;;;18.16;81.08
28921;BME280;16035;53.594;9.952;2023-07-28T05:59:23;100212.69;;;18.19;80.97
28921;BME280;16035;53.594;9.952;2023-07-28T06:01:23;100206.38;;;18.19;80.48
28921;BME280;16035;53.594;9.952;2023-07-28T06:03:26;100209.13;;;18.19;80.54
28921;BME280;16035;53.594;9.952;2023-07-28T06:05:29;100203.44;;;18.24;80.84
28921;BME280;16035;53.594;9.952;2023-07-28T06:07:29;100207.63;;;18.30;80.66
28921;BME280;16035;53.594;9.952;2023-07-28T06:09:29;100209.91;;;18.37;80.84
28921;BME280;16035;53.594;9.952;2023-07-28T06:11:30;100209.41;;;18.43;80.78
28921;BME280;16035;53.594;9.952;2023-07-28T06:13:30;100213.91;;;18.48;80.71
28921;BME280;16035;53.594;9.952;2023-07-28T06:15:31;100212.63;;;18.54;80.60
28921;BME280;16035;53.594;9.952;2023-07-28T06:17:31;100217.63;;;18.61;80.62
28921;BME280;16035;53.594;9.952;2023-07-28T06:19:31;100220.88;;;18.72;80.70
28921;BME280;16035;53.594;9.952;2023-07-28T06:21:32;100223.63;;;18.72;79.52
28921;BME280;16035;53.594;9.952;2023-07-28T06:23:32;100223.63;;;18.72;80.05
28921;BME280;16035;53.594;9.952;2023-07-28T06:25:32;100226.38;;;18.72;79.85
28921;BME280;16035;53.594;9.952;2023-07-28T06:27:33;100233.00;;;18.71;80.02
28921;BME280;16035;53.594;9.952;2023-07-28T06:29:33;100227.50;;;18.71;80.15
28921;BME280;16035;53.594;9.952;2023-07-28T06:31:34;100229.75;;;18.68;79.73
28921;BME280;16035;53.594;9.952;2023-07-28T06:33:34;100234.28;;;18.64;79.84
28921;BME280;16035;53.594;9.952;2023-07-28T06:35:34;100235.44;;;18.63;80.03
28921;BME280;16035;53.594;9.952;2023-07-28T06:37:36;100237.38;;;18.63;80.11
28921;BME280;16035;53.594;9.952;2023-07-28T06:39:37;100232.53;;;18.60;80.05
28921;BME280;16035;53.594;9.952;2023-07-28T06:41:37;100243.53;;;18.60;80.22
28921;BME280;16035;53.594;9.952;2023-07-28T06:43:38;100238.19;;;18.63;80.13
28921;BME280;16035;53.594;9.952;2023-07-28T06:45:38;100242.53;;;18.64;80.15
28921;BME280;16035;53.594;9.952;2023-07-28T06:47:38;100240.75;;;18.68;80.13
28921;BME280;16035;53.594;9.952;2023-07-28T06:49:39;100242.09;;;18.71;80.16
28921;BME280;16035;53.594;9.952;2023-07-28T06:51:39;100239.97;;;18.77;80.03
28921;BME280;16035;53.594;9.952;2023-07-28T06:53:39;100241.09;;;18.84;80.41
28921;BME280;16035;53.594;9.952;2023-07-28T06:55:40;100249.47;;;18.88;79.72
28921;BME280;16035;53.594;9.952;2023-07-28T06:57:40;100238.63;;;18.83;79.19
28921;BME280;16035;53.594;9.952;2023-07-28T06:59:41;100249.03;;;18.77;79.20
28921;BME280;16035;53.594;9.952;2023-07-28T07:01:42;100250.47;;;18.75;79.15
28921;BME280;16035;53.594;9.952;2023-07-28T07:03:42;100250.63;;;18.78;79.51
28921;BME280;16035;53.594;9.952;2023-07-28T07:05:43;100258.59;;;18.80;79.51
28921;BME280;16035;53.594;9.952;2023-07-28T07:07:43;100258.41;;;18.85;79.23
28921;BME280;16035;53.594;9.952;2023-07-28T07:09:44;100261.28;;;18.88;79.56
28921;BME280;16035;53.594;9.952;2023-07-28T07:11:45;100259.84;;;18.91;79.44
28921;BME280;16035;53.594;9.952;2023-07-28T07:13:45;100265.84;;;18.93;79.39
28921;BME280;16035;53.594;9.952;2023-07-28T07:15:46;100266.94;;;18.92;78.96
28921;BME280;16035;53.594;9.952;2023-07-28T07:17:46;100272.78;;;18.90;78.90
28921;BME280;16035;53.594;9.952;2023-07-28T07:19:46;100278.78;;;18.92;79.00
28921;BME280;16035;53.594;9.952;2023-07-28T07:21:47;100282.81;;;18.95;79.31
28921;BME280;16035;53.594;9.952;2023-07-28T07:23:49;100283.78;;;18.99;79.69
28921;BME280;16035;53.594;9.952;2023-07-28T07:25:49;100287.66;;;19.07;79.43
28921;BME280;16035;53.594;9.952;2023-07-28T07:27:50;100284.53;;;19.17;79.76
28921;BME280;16035;53.594;9.952;2023-07-28T07:29:51;100293.41;;;19.23;79.07
28921;BME280;16035;53.594;9.952;2023-07-28T07:31:51;100296.81;;;19.19;78.92
28921;BME280;16035;53.594;9.952;2023-07-28T07:33:56;100306.22;;;19.27;78.97
28921;BME280;16035;53.594;9.952;2023-07-28T07:35:56;100305.56;;;19.30;78.97
28921;BME280;16035;53.594;9.952;2023-07-28T07:37:56;100294.53;;;19.30;78.98
28921;BME280;16035;53.594;9.952;2023-07-28T07:39:57;100303.59;;;19.31;79.04
28921;BME280;16035;53.594;9.952;2023-07-28T07:41:57;100311.06;;;19.30;79.18
28921;BME280;16035;53.594;9.952;2023-07-28T07:43:58;100317.53;;;19.34;79.09
28921;BME280;16035;53.594;9.952;2023-07-28T07:45:58;100316.84;;;19.37;79.15
28921;BME280;16035;53.594;9.952;2023-07-28T07:47:59;100314.94;;;19.38;79.13
28921;BME280;16035;53.594;9.952;2023-07-28T07:49:59;100312.78;;;19.43;79.15
28921;BME280;16035;53.594;9.952;2023-07-28T07:52:00;100309.38;;;19.47;78.97
28921;BME280;16035;53.594;9.952;2023-07-28T07:54:00;100315.31;;;19.57;78.93
28921;BME280;16035;53.594;9.952;2023-07-28T07:56:04;100315.97;;;19.63;78.84
28921;BME280;16035;53.594;9.952;2023-07-28T07:58:05;100313.56;;;19.61;78.94
28921;BME280;16035;53.594;9.952;2023-07-28T08:00:05;100323.44;;;19.62;78.99
28921;BME280;16035;53.594;9.952;2023-07-28T08:02:06;100321.63;;;19.66;79.09
28921;BME280;16035;53.594;9.952;2023-07-28T08:04:08;100328.56;;;19.73;78.49
28921;BME280;16035;53.594;9.952;2023-07-28T08:06:08;100327.91;;;19.76;78.53
28921;BME280;16035;53.594;9.952;2023-07-28T08:08:11;100326.75;;;19.77;78.29
28921;BME280;16035;53.594;9.952;2023-07-28T08:10:11;100323.69;;;19.78;78.51
28921;BME280;16035;53.594;9.952;2023-07-28T08:12:12;100327.06;;;19.84;78.60
28921;BME280;16035;53.594;9.952;2023-07-28T08:14:13;100334.38;;;19.80;78.02
28921;BME280;16035;53.594;9.952;2023-07-28T08:16:14;100327.84;;;19.84;77.91
28921;BME280;16035;53.594;9.952;2023-07-28T08:18:14;100333.53;;;19.88;77.91
28921;BME280;16035;53.594;9.952;2023-07-28T08:20:15;100334.19;;;19.85;77.87
28921;BME280;16035;53.594;9.952;2023-07-28T08:22:15;100336.94;;;19.85;77.75
28921;BME280;16035;53.594;9.952;2023-07-28T08:24:15;100334.97;;;19.85;77.86
28921;BME280;16035;53.594;9.952;2023-07-28T08:26:16;100342.09;;;19.86;77.77
28921;BME280;16035;53.594;9.952;2023-07-28T08:28:16;100346.00;;;19.85;77.74
28921;BME280;16035;53.594;9.952;2023-07-28T08:30:16;100348.16;;;19.80;77.80
28921;BME280;16035;53.594;9.952;2023-07-28T08:32:17;100349.97;;;19.76;78.13
28921;BME280;16035;53.594;9.952;2023-07-28T08:34:17;100353.38;;;19.73;78.09
28921;BME280;16035;53.594;9.952;2023-07-28T08:36:17;100358.44;;;19.71;78.15
28921;BME280;16035;53.594;9.952;2023-07-28T08:38:18;100351.31;;;19.69;78.04
28921;BME280;16035;53.594;9.952;2023-07-28T08:40:18;100358.88;;;19.73;78.10
28921;BME280;16035;53.594;9.952;2023-07-28T08:42:20;100364.88;;;19.75;78.18
28921;BME280;16035;53.594;9.952;2023-07-28T08:44:21;100366.84;;;19.74;78.29
28921;BME280;16035;53.594;9.952;2023-07-28T08:46:21;100370.72;;;19.73;78.32
28921;BME280;16035;53.594;9.952;2023-07-28T08:48:22;100373.00;;;19.71;78.23
28921;BME280;16035;53.594;9.952;2023-07-28T08:50:22;100366.19;;;19.68;78.06
28921;BME280;16035;53.594;9.952;2023-07-28T08:52:23;100367.34;;;19.67;78.22
28921;BME280;16035;53.594;9.952;2023-07-28T08:54:24;100374.34;;;19.65;77.96
28921;BME280;16035;53.594;9.952;2023-07-28T08:56:24;100370.78;;;19.64;78.07
28921;BME280;16035;53.594;9.952;2023-07-28T08:58:24;100368.03;;;19.64;78.25
28921;BME280;16035;53.594;9.952;2023-07-28T09:00:25;100370.91;;;19.68;78.22
28921;BME280;16035;53.594;9.952;2023-07-28T09:02:27;100373.34;;;19.69;78.19
28921;BME280;16035;53.594;9.952;2023-07-28T09:04:29;100377.06;;;19.74;78.43
28921;BME280;16035;53.594;9.952;2023-07-28T09:06:30;100381.44;;;19.75;78.04
28921;BME280;16035;53.594;9.952;2023-07-28T09:08:31;100374.78;;;19.76;77.97
28921;BME280;16035;53.594;9.952;2023-07-28T09:10:48;100384.00;;;19.80;78.23
28921;BME280;16035;53.594;9.952;2023-07-28T09:12:50;100382.19;;;19.84;77.52
28921;BME280;16035;53.594;9.952;2023-07-28T09:14:56;100388.53;;;19.84;77.36
28921;BME280;16035;53.594;9.952;2023-07-28T09:17:06;100388.53;;;19.84;77.51
28921;BME280;16035;53.594;9.952;2023-07-28T09:19:07;100376.50;;;19.89;77.63
28921;BME280;16035;53.594;9.952;2023-07-28T09:21:09;100382.66;;;19.86;77.44
28921;BME280;16035;53.594;9.952;2023-07-28T09:23:15;100387.53;;;19.89;77.45
28921;BME280;16035;53.594;9.952;2023-07-28T09:25:16;100388.34;;;19.89;77.60
28921;BME280;16035;53.594;9.952;2023-07-28T09:27:22;100394.66;;;19.90;77.44
28921;BME280;16035;53.594;9.952;2023-07-28T09:29:23;100385.56;;;19.89;77.86
28921;BME280;16035;53.594;9.952;2023-07-28T09:31:30;100395.44;;;19.90;77.70
28921;BME280;16035;53.594;9.952;2023-07-28T09:33:34;100393.03;;;19.89;77.78
28921;BME280;16035;53.594;9.952;2023-07-28T09:35:47;100396.25;;;19.91;78.09
28921;BME280;16035;53.594;9.952;2023-07-28T09:37:49;100398.03;;;19.95;77.48
28921;BME280;16035;53.594;9.952;2023-07-28T09:39:50;100394.00;;;19.93;77.07
28921;BME280;16035;53.594;9.952;2023-07-28T09:41:51;100382.97;;;19.93;76.92
28921;BME280;16035;53.594;9.952;2023-07-28T09:43:52;100396.41;;;19.94;77.11
28921;BME280;16035;53.594;9.952;2023-07-28T09:45:53;100395.25;;;19.95;77.47
28921;BME280;16035;53.594;9.952;2023-07-28T09:47:57;100394.47;;;19.95;77.42
28921;BME280;16035;53.594;9.952;2023-07-28T09:50:02;100403.22;;;19.97;77.41
28921;BME280;16035;53.594;9.952;2023-07-28T09:52:09;100401.28;;;19.98;77.51
28921;BME280;16035;53.594;9.952;2023-07-28T09:54:24;100401.72;;;20.00;77.69
28921;BME280;16035;53.594;9.952;2023-07-28T09:56:29;100397.97;;;20.04;77.73
28921;BME280;16035;53.594;9.952;2023-07-28T09:58:33;100388.91;;;20.04;77.77
28921;BME280;16035;53.594;9.952;2023-07-28T10:00:37;100399.63;;;20.05;77.79
28921;BME280;16035;53.594;9.952;2023-07-28T10:02:39;100395.06;;;20.09;77.91
28921;BME280;16035;53.594;9.952;2023-07-28T10:04:39;100392.94;;;20.06;77.64
28921;BME280;16035;53.594;9.952;2023-07-28T10:06:40;100398.63;;;20.10;77.46
28921;BME280;16035;53.594;9.952;2023-07-28T10:08:41;100400.03;;;20.16;77.50
28921;BME280;16035;53.594;9.952;2023-07-28T10:10:43;100399.84;;;20.21;77.43
28921;BME280;16035;53.594;9.952;2023-07-28T10:12:50;100400.94;;;20.29;77.32
28921;BME280;16035;53.594;9.952;2023-07-28T10:15:00;100402.13;;;20.40;76.94
28921;BME280;16035;53.594;9.952;2023-07-28T10:17:05;100409.88;;;20.55;77.02
28921;BME280;16035;53.594;9.952;2023-07-28T10:19:06;100404.44;;;20.67;77.11
28921;BME280;16035;53.594;9.952;2023-07-28T10:21:15;100410.19;;;20.75;76.72
28921;BME280;16035;53.594;9.952;2023-07-28T10:23:17;100411.94;;;20.79;76.48
28921;BME280;16035;53.594;9.952;2023-07-28T10:25:23;100411.63;;;20.81;76.29
28921;BME280;16035;53.594;9.952;2023-07-28T10:29:37;100422.47;;;20.86;76.16
28921;BME280;16035;53.594;9.952;2023-07-28T10:31:52;100422.59;;;20.89;76.04
28921;BME280;16035;53.594;9.952;2023-07-28T10:33:53;100418.34;;;20.92;75.84
28921;BME280;16035;53.594;9.952;2023-07-28T10:35:54;100426.16;;;20.90;75.49
28921;BME280;16035;53.594;9.952;2023-07-28T10:37:54;100419.50;;;20.91;75.42